Time;durP1;ratioP1;P1;durP2;ratioP2;P2;SDS_P1;SDS_P2;PMS_P1;PMS_P2;Temp;Humidity;BMP_temperature;BMP_pressure;BME280_temperature;BME280_humidity;BME280_pressure;Samples;Min_cycle;Max_cycle;Signal;HPM_P1;HPM_P2
2022/01/09 00:01:28;;;;;;;4.00;1.80;;;-2.50;96.30;;;;;;4878863;29;20442;-75
2022/01/09 00:03:54;;;;;;;2.60;1.20;;;-2.50;96.30;;;;;;4878744;29;20450;-75
2022/01/09 00:06:19;;;;;;;2.97;1.73;;;-2.50;96.30;;;;;;4878914;29;20313;-75
2022/01/09 00:08:45;;;;;;;3.83;1.87;;;-2.50;96.30;;;;;;4878801;29;20237;-77
2022/01/09 00:11:14;;;;;;;1.70;1.23;;;-2.60;96.30;;;;;;4878769;29;20784;-75
2022/01/09 00:13:41;;;;;;;3.30;1.57;;;-2.50;96.30;;;;;;4878475;29;20197;-75
2022/01/09 00:16:07;;;;;;;4.67;2.10;;;-2.50;96.30;;;;;;4878684;29;20411;-75
2022/01/09 00:18:33;;;;;;;7.13;2.87;;;-2.50;96.30;;;;;;4878734;29;20938;-75
2022/01/09 00:20:59;;;;;;;2.50;1.80;;;-2.50;96.30;;;;;;4878477;29;20434;-75
2022/01/09 00:23:24;;;;;;;3.00;1.97;;;-2.50;96.30;;;;;;4878472;29;20260;-75
2022/01/09 00:25:50;;;;;;;3.80;2.00;;;-2.50;96.30;;;;;;4878600;29;20185;-76
2022/01/09 00:28:15;;;;;;;1.77;1.10;;;-2.60;96.30;;;;;;4878542;29;20221;-75
2022/01/09 00:30:41;;;;;;;2.33;1.60;;;-2.70;96.30;;;;;;4878460;29;20189;-75
2022/01/09 00:33:07;;;;;;;2.40;2.17;;;-2.60;96.30;;;;;;4878399;29;20253;-77
2022/01/09 00:35:33;;;;;;;2.67;1.80;;;-2.50;96.30;;;;;;4887936;29;20283;-75
2022/01/09 00:37:59;;;;;;;2.50;2.00;;;-2.50;96.30;;;;;;4897140;29;20413;-75
2022/01/09 00:40:25;;;;;;;2.30;1.30;;;-2.70;96.30;;;;;;4897019;29;20924;-75
2022/01/09 00:42:51;;;;;;;3.30;2.00;;;-2.80;96.30;;;;;;4897061;29;20653;-75
2022/01/09 00:45:18;;;;;;;2.90;1.63;;;-2.70;96.30;;;;;;4896842;29;20965;-75
2022/01/09 00:47:45;;;;;;;4.00;1.73;;;-2.80;96.30;;;;;;4896900;29;20508;-75
2022/01/09 00:50:12;;;;;;;2.23;1.40;;;-2.80;96.30;;;;;;4897078;29;20466;-75
2022/01/09 00:52:38;;;;;;;2.77;1.43;;;-2.80;96.30;;;;;;4900058;29;20437;-75
2022/01/09 00:55:05;;;;;;;3.13;2.07;;;-2.80;96.30;;;;;;4901680;29;20439;-75
2022/01/09 00:57:31;;;;;;;2.30;1.57;;;-2.80;96.30;;;;;;4903236;29;20173;-75
2022/01/09 00:59:56;;;;;;;4.20;1.23;;;-2.80;96.30;;;;;;4903207;29;20416;-75
2022/01/09 05:01:27;;;;;;;3.37;2.20;;;-1.90;96.30;;;;;;5390483;23;20505;-76
2022/01/09 05:03:53;;;;;;;5.93;2.53;;;-1.90;96.30;;;;;;4894830;29;21001;-77
2022/01/09 05:06:19;;;;;;;5.50;1.90;;;-2.00;96.30;;;;;;4910951;29;20180;-76
2022/01/09 05:08:45;;;;;;;2.67;1.90;;;-2.00;96.30;;;;;;4911110;29;20217;-76
2022/01/09 05:11:10;;;;;;;3.80;2.70;;;-2.00;96.30;;;;;;4896692;29;20441;-77
2022/01/09 05:13:35;;;;;;;4.13;1.37;;;-2.00;96.30;;;;;;4897198;29;20177;-74
2022/01/09 05:16:01;;;;;;;7.70;2.73;;;-2.10;96.30;;;;;;4911429;29;20199;-74
2022/01/09 05:18:26;;;;;;;2.80;2.07;;;-1.90;96.30;;;;;;4897838;29;20192;-74
2022/01/09 05:20:52;;;;;;;4.20;1.90;;;-2.00;96.30;;;;;;4896745;29;20237;-75
2022/01/09 05:23:17;;;;;;;2.37;1.80;;;-2.00;96.30;;;;;;4896208;29;20492;-74
2022/01/09 05:25:43;;;;;;;3.10;2.13;;;-2.00;96.30;;;;;;4896431;29;20254;-75
2022/01/09 05:28:08;;;;;;;4.43;2.20;;;-2.00;96.30;;;;;;4896613;29;20248;-74
2022/01/09 05:30:34;;;;;;;5.47;2.60;;;-2.10;96.30;;;;;;4896640;29;20688;-75
2022/01/09 05:32:59;;;;;;;2.67;1.77;;;-2.10;96.30;;;;;;4896592;29;20661;-75
2022/01/09 05:35:25;;;;;;;2.30;1.70;;;-2.20;96.30;;;;;;4896164;29;20185;-74
2022/01/09 05:37:51;;;;;;;2.30;2.10;;;-2.10;96.30;;;;;;4896473;29;20263;-74
2022/01/09 05:40:19;;;;;;;2.73;2.10;;;-2.10;96.30;;;;;;4898893;29;20256;-75
2022/01/09 05:42:45;;;;;;;3.20;2.27;;;-2.30;96.30;;;;;;4900151;29;20420;-76
2022/01/09 05:45:10;;;;;;;6.43;2.50;;;-2.10;96.30;;;;;;4899585;29;20421;-75
2022/01/09 05:47:36;;;;;;;6.70;2.73;;;-2.00;96.30;;;;;;4898595;29;20432;-75
2022/01/09 05:50:03;;;;;;;3.27;2.30;;;-2.00;96.30;;;;;;4899718;29;20308;-75
2022/01/09 05:52:28;;;;;;;2.43;2.00;;;-2.00;96.30;;;;;;4899857;29;20669;-75
2022/01/09 05:54:54;;;;;;;1.80;1.40;;;-2.00;96.30;;;;;;4899228;29;20452;-75
2022/01/09 05:57:19;;;;;;;4.03;2.13;;;-1.90;96.30;;;;;;4899794;29;20256;-75
2022/01/09 05:59:45;;;;;;;2.60;2.07;;;-1.90;96.30;;;;;;4899840;29;20188;-75
2022/01/09 06:02:10;;;;;;;4.50;1.93;;;-1.80;96.30;;;;;;4898317;29;20224;-75
2022/01/09 06:04:36;;;;;;;5.10;1.50;;;-1.70;96.30;;;;;;4897808;29;20215;-75
2022/01/09 06:07:01;;;;;;;4.67;2.10;;;-1.70;96.30;;;;;;4899676;29;20189;-74
2022/01/09 06:09:27;;;;;;;2.93;1.83;;;-1.70;96.30;;;;;;4899450;29;20580;-75
2022/01/09 06:11:52;;;;;;;4.33;2.57;;;-1.60;96.30;;;;;;4899467;29;20207;-75
2022/01/09 06:14:18;;;;;;;1.93;1.10;;;-1.60;96.30;;;;;;4899078;29;20197;-75
2022/01/09 06:16:43;;;;;;;2.50;1.70;;;-1.60;96.30;;;;;;4899395;29;20693;-75
2022/01/09 06:19:10;;;;;;;2.67;1.97;;;-1.60;96.30;;;;;;4913921;29;20237;-76
2022/01/09 06:21:36;;;;;;;11.83;2.00;;;-1.50;96.30;;;;;;4899370;29;20268;-76
2022/01/09 06:24:01;;;;;;;1.63;1.53;;;-1.50;96.30;;;;;;4898832;29;20917;-75
2022/01/09 06:26:27;;;;;;;6.13;1.60;;;-1.50;96.30;;;;;;4899238;29;20645;-75
2022/01/09 06:28:52;;;;;;;2.53;1.93;;;-1.50;96.30;;;;;;4899301;29;20222;-76
2022/01/09 06:31:18;;;;;;;4.70;2.00;;;-1.50;96.30;;;;;;4899092;29;20197;-76
2022/01/09 06:33:43;;;;;;;2.50;2.03;;;-1.50;96.30;;;;;;4897371;29;20173;-77
2022/01/09 06:36:09;;;;;;;2.40;1.50;;;-1.50;96.30;;;;;;4899057;29;20180;-76
2022/01/09 06:38:37;;;;;;;1.80;1.67;;;-1.60;96.30;;;;;;4898950;29;20181;-76
2022/01/09 06:41:03;;;;;;;3.33;1.30;;;-1.60;96.30;;;;;;4897173;29;20650;-75
2022/01/09 06:43:28;;;;;;;3.80;1.60;;;-1.60;96.30;;;;;;4898333;29;20512;-76
2022/01/09 06:45:54;;;;;;;1.97;1.57;;;-1.60;96.30;;;;;;4898967;29;20177;-76
2022/01/09 06:48:19;;;;;;;2.80;2.13;;;-1.50;96.30;;;;;;4898910;29;20288;-76
2022/01/09 06:50:45;;;;;;;3.53;2.07;;;-1.40;96.30;;;;;;4898252;29;20684;-76
2022/01/09 06:53:10;;;;;;;1.67;1.47;;;-1.50;96.30;;;;;;4912636;29;20669;-76
2022/01/09 06:55:36;;;;;;;2.60;2.00;;;-1.30;96.30;;;;;;4897431;29;20184;-76
2022/01/09 06:58:01;;;;;;;4.33;2.60;;;-1.20;96.30;;;;;;4898857;29;20180;-75
2022/01/09 07:00:26;;;;;;;2.93;2.47;;;-1.40;96.30;;;;;;4898659;29;20236;-76
2022/01/09 07:02:52;;;;;;;3.23;1.67;;;-1.30;96.30;;;;;;4913146;29;20181;-76
2022/01/09 07:05:17;;;;;;;5.43;1.37;;;-1.20;96.30;;;;;;4896777;29;20208;-76
2022/01/09 07:07:43;;;;;;;2.50;1.73;;;-1.20;96.30;;;;;;4897301;29;20177;-76
2022/01/09 07:10:10;;;;;;;3.63;1.50;;;-1.20;96.30;;;;;;4896929;29;20209;-76
2022/01/09 07:12:36;;;;;;;5.43;2.70;;;-1.10;96.30;;;;;;4898416;29;20197;-76
2022/01/09 07:15:05;;;;;;;4.03;2.10;;;-1.10;96.30;;;;;;4897779;29;20413;-76
2022/01/09 07:17:32;;;;;;;4.40;2.40;;;-1.10;96.30;;;;;;4879589;29;20410;-76
2022/01/09 07:19:57;;;;;;;2.50;1.97;;;-1.00;96.30;;;;;;4878222;29;20788;-76
2022/01/09 07:22:23;;;;;;;4.80;3.07;;;-1.00;96.30;;;;;;4879518;29;20434;-76
2022/01/09 07:24:48;;;;;;;6.43;2.73;;;-1.10;96.30;;;;;;4879002;29;20245;-76
2022/01/09 07:27:14;;;;;;;5.73;3.10;;;-1.00;96.30;;;;;;4879371;29;20212;-76
2022/01/09 07:29:39;;;;;;;8.93;4.27;;;-1.10;96.30;;;;;;4893660;29;20205;-75
2022/01/09 07:32:05;;;;;;;9.00;5.70;;;-1.10;96.30;;;;;;4879459;29;20543;-76
2022/01/09 07:34:30;;;;;;;17.63;9.37;;;-1.20;96.30;;;;;;4878995;29;20590;-76
2022/01/09 07:36:56;;;;;;;5.30;2.37;;;-1.20;96.30;;;;;;4897673;29;20173;-76
2022/01/09 07:39:22;;;;;;;5.33;3.73;;;-1.20;96.30;;;;;;4896212;29;20218;-76
2022/01/09 07:41:47;;;;;;;3.70;2.20;;;-1.20;96.30;;;;;;4897557;29;20280;-75
2022/01/09 07:44:13;;;;;;;6.07;3.70;;;-1.10;96.30;;;;;;4895810;29;20210;-76
2022/01/09 07:46:39;;;;;;;2.90;2.50;;;-1.10;96.30;;;;;;4897734;29;20192;-76
2022/01/09 07:49:04;;;;;;;4.57;2.20;;;-1.10;96.30;;;;;;4897224;29;20287;-76
2022/01/09 07:51:30;;;;;;;3.30;2.17;;;-1.10;96.30;;;;;;4897394;29;20201;-75
2022/01/09 07:53:55;;;;;;;3.83;2.40;;;-1.10;96.30;;;;;;4895794;29;20646;-76
2022/01/09 07:56:21;;;;;;;2.90;1.50;;;-1.00;96.30;;;;;;4897026;29;20185;-76
2022/01/09 07:58:47;;;;;;;3.50;2.20;;;-1.00;96.30;;;;;;4897030;29;20209;-76
2022/01/09 08:01:12;;;;;;;4.47;2.37;;;-1.00;96.30;;;;;;4895570;29;20499;-76
2022/01/09 08:03:38;;;;;;;4.90;2.80;;;-0.90;96.30;;;;;;4896164;29;20700;-76
2022/01/09 08:06:03;;;;;;;4.23;3.20;;;-0.90;96.30;;;;;;4897912;29;20196;-76
2022/01/09 08:08:29;;;;;;;6.13;3.90;;;-0.90;96.30;;;;;;4897797;29;20200;-75
2022/01/09 08:10:55;;;;;;;5.70;2.93;;;-0.90;96.30;;;;;;4893617;29;20203;-75
2022/01/09 08:13:20;;;;;;;3.77;2.93;;;-0.90;96.30;;;;;;4897004;29;20185;-75
2022/01/09 08:15:46;;;;;;;5.20;3.47;;;-0.90;96.30;;;;;;4884638;29;20449;-75
2022/01/09 08:18:12;;;;;;;5.23;3.70;;;-0.80;96.30;;;;;;4894889;29;20199;-74
2022/01/09 08:20:37;;;;;;;3.50;2.07;;;-0.80;96.30;;;;;;4905450;29;20433;-74
2022/01/09 08:23:03;;;;;;;6.97;3.67;;;-0.80;96.30;;;;;;4897435;29;20199;-74
2022/01/09 08:25:29;;;;;;;8.03;3.70;;;-0.80;96.30;;;;;;4897222;29;20704;-75
2022/01/09 08:27:55;;;;;;;13.73;8.03;;;-0.70;96.30;;;;;;4911798;29;20414;-74
2022/01/09 08:30:21;;;;;;;13.40;8.10;;;-0.70;96.30;;;;;;4905919;29;20212;-74
2022/01/09 08:32:48;;;;;;;5.53;4.13;;;-0.60;96.30;;;;;;4904565;29;20177;-74
2022/01/09 08:35:15;;;;;;;6.17;3.70;;;-0.60;96.30;;;;;;4896859;29;20185;-75
2022/01/09 08:37:42;;;;;;;6.60;3.80;;;-0.50;96.30;;;;;;4897151;29;20417;-75
2022/01/09 08:40:10;;;;;;;5.13;4.00;;;-0.60;96.30;;;;;;4901507;29;20461;-75
2022/01/09 08:42:35;;;;;;;5.37;3.67;;;-0.60;96.30;;;;;;4915988;29;21080;-75
2022/01/09 08:45:01;;;;;;;3.80;3.10;;;-0.50;96.30;;;;;;4915218;29;20464;-75
2022/01/09 08:47:26;;;;;;;5.83;3.67;;;-0.50;96.30;;;;;;4915919;29;20542;-75
2022/01/09 08:49:52;;;;;;;4.70;3.40;;;-0.50;96.30;;;;;;4914486;29;20222;-76
2022/01/09 08:52:17;;;;;;;3.93;3.13;;;-0.50;96.30;;;;;;4900280;29;20700;-74
2022/01/09 08:54:43;;;;;;;3.97;2.47;;;-0.40;96.30;;;;;;4896449;29;20205;-75
2022/01/09 08:57:08;;;;;;;4.00;2.80;;;-0.30;96.30;;;;;;4896807;29;20366;-74
2022/01/09 08:59:34;;;;;;;4.43;3.63;;;-0.30;96.30;;;;;;4896827;29;20177;-75
2022/01/09 09:01:59;;;;;;;5.30;3.37;;;-0.20;96.30;;;;;;4897457;29;20250;-74
2022/01/09 09:04:25;;;;;;;5.10;3.17;;;-0.20;96.30;;;;;;4904668;29;20191;-75
2022/01/09 09:06:51;;;;;;;7.67;4.07;;;0.00;96.30;;;;;;4898650;29;20199;-75
2022/01/09 09:09:17;;;;;;;5.50;2.57;;;0.00;96.30;;;;;;4898092;29;20219;-75
2022/01/09 09:11:42;;;;;;;14.60;8.50;;;0.00;96.30;;;;;;4900179;29;20469;-75
2022/01/09 09:14:08;;;;;;;6.67;3.80;;;0.10;96.30;;;;;;4898659;29;20177;-75
2022/01/09 09:16:34;;;;;;;4.83;3.87;;;0.20;96.30;;;;;;4901639;29;20544;-74
2022/01/09 09:18:59;;;;;;;3.33;2.57;;;0.20;96.30;;;;;;4919536;29;20176;-75
2022/01/09 09:21:25;;;;;;;4.93;3.37;;;0.10;96.30;;;;;;4919238;29;20468;-76
2022/01/09 09:23:51;;;;;;;3.17;2.37;;;0.20;96.30;;;;;;4918952;29;20185;-75
2022/01/09 09:26:16;;;;;;;3.13;2.30;;;0.20;96.30;;;;;;4919294;29;20663;-74
2022/01/09 09:28:43;;;;;;;3.80;2.50;;;0.30;96.30;;;;;;4918240;29;20666;-74
2022/01/09 09:31:09;;;;;;;2.77;2.20;;;0.50;96.30;;;;;;4919466;29;20203;-74
2022/01/09 09:33:34;;;;;;;2.50;1.97;;;0.70;96.30;;;;;;4918702;29;20416;-74
2022/01/09 09:36:02;;;;;;;3.03;2.33;;;0.70;96.30;;;;;;4905797;29;20762;-75
2022/01/09 09:38:29;;;;;;;3.00;2.27;;;0.90;96.30;;;;;;4900212;29;20232;-76
2022/01/09 09:40:55;;;;;;;4.37;3.07;;;1.10;96.30;;;;;;4899914;29;20472;-76
2022/01/09 09:43:20;;;;;;;4.40;3.00;;;1.20;96.30;;;;;;4899447;29;20879;-75
2022/01/09 09:45:46;;;;;;;4.13;2.90;;;1.30;96.30;;;;;;4909274;29;20184;-75
2022/01/09 09:48:11;;;;;;;3.80;2.90;;;1.40;96.30;;;;;;4900153;29;20289;-75
2022/01/09 09:50:38;;;;;;;11.13;7.00;;;1.50;96.30;;;;;;4908323;29;20209;-75
2022/01/09 09:53:04;;;;;;;6.50;3.20;;;1.60;96.30;;;;;;4899859;29;20173;-74
2022/01/09 09:55:30;;;;;;;11.27;6.60;;;1.60;96.30;;;;;;4898032;29;20836;-75
2022/01/09 09:57:56;;;;;;;7.37;5.77;;;1.50;96.30;;;;;;4899914;29;20185;-75
2022/01/09 10:00:23;;;;;;;3.93;2.03;;;1.50;96.30;;;;;;4899704;29;20177;-75
2022/01/09 10:02:51;;;;;;;2.03;1.57;;;1.40;96.30;;;;;;4899785;29;20421;-75
2022/01/09 10:05:20;;;;;;;3.83;2.37;;;1.50;96.30;;;;;;4898940;29;20420;-75
2022/01/09 10:07:46;;;;;;;2.60;1.57;;;1.50;96.30;;;;;;4896405;29;20449;-75
2022/01/09 10:10:19;;;;;;;2.50;2.30;;;1.70;96.30;;;;;;4899293;29;21063;-75
2022/01/09 10:12:46;;;;;;;1.60;1.47;;;1.90;96.30;;;;;;4898326;29;20889;-75
2022/01/09 10:15:17;;;;;;;3.57;2.93;;;1.90;96.30;;;;;;4899098;29;20901;-75
2022/01/09 10:17:48;;;;;;;6.07;2.80;;;2.00;96.30;;;;;;4899510;29;20410;-75
2022/01/09 10:20:19;;;;;;;4.13;2.97;;;2.10;96.30;;;;;;4899197;29;20489;-76
2022/01/09 10:22:52;;;;;;;1.93;1.30;;;2.10;96.30;;;;;;4899419;29;20424;-76
2022/01/09 10:25:38;;;;;;;2.53;1.70;;;2.20;96.30;;;;;;4905952;29;20447;-76
2022/01/09 10:28:09;;;;;;;1.63;1.33;;;2.50;96.30;;;;;;4916953;29;20420;-74
2022/01/09 10:30:47;;;;;;;2.17;1.63;;;2.50;96.30;;;;;;4918220;29;20796;-74
2022/01/09 10:33:18;;;;;;;2.90;1.70;;;2.70;96.30;;;;;;4917590;29;20393;-75
2022/01/09 10:35:46;;;;;;;2.57;1.70;;;2.90;96.30;;;;;;4906785;29;20421;-75
2022/01/09 10:38:22;;;;;;;1.57;1.20;;;2.80;96.30;;;;;;4899281;29;20460;-75
2022/01/09 10:41:00;;;;;;;3.03;1.67;;;3.40;96.30;;;;;;4898881;29;20860;-75
2022/01/09 10:43:41;;;;;;;3.53;1.83;;;4.20;96.30;;;;;;4898595;29;20956;-76
2022/01/09 10:46:08;;;;;;;2.90;1.50;;;4.50;96.30;;;;;;4899108;29;20857;-74
2022/01/09 10:48:37;;;;;;;2.33;2.13;;;4.20;96.30;;;;;;4897572;29;20461;-74
2022/01/09 10:51:05;;;;;;;2.80;1.63;;;4.10;96.30;;;;;;4898889;29;20813;-75
2022/01/09 10:53:36;;;;;;;3.63;2.50;;;3.90;96.30;;;;;;4898457;29;20477;-75
2022/01/09 10:56:14;;;;;;;2.77;1.50;;;3.70;96.30;;;;;;4897548;29;20469;-74
2022/01/09 10:58:49;;;;;;;1.80;1.60;;;3.50;96.30;;;;;;4898820;29;20421;-75
2022/01/09 11:01:20;;;;;;;5.97;4.03;;;3.30;96.30;;;;;;4898379;29;20508;-74
2022/01/09 11:03:49;;;;;;;3.50;2.70;;;3.40;96.30;;;;;;4912597;29;20433;-76
2022/01/09 11:06:15;;;;;;;3.33;2.57;;;3.40;96.30;;;;;;4898689;29;20506;-76
2022/01/09 11:08:42;;;;;;;3.00;2.33;;;3.40;96.30;;;;;;4898369;29;20481;-74
2022/01/09 11:11:47;;;;;;;3.50;2.50;;;3.50;96.30;;;;;;4906637;29;20445;-76
2022/01/09 11:14:07;;;;;;;1.93;1.50;;;3.50;96.30;;;;;;4907644;29;20409;-74
2022/01/09 11:16:37;;;;;;;4.57;1.80;;;3.70;96.30;;;;;;4917435;29;20420;-74
2022/01/09 11:19:15;;;;;;;4.50;1.47;;;3.50;96.30;;;;;;4917548;29;20471;-74
2022/01/09 11:21:43;;;;;;;2.20;1.83;;;3.40;96.30;;;;;;4917360;29;20484;-74
2022/01/09 11:24:19;;;;;;;4.83;3.27;;;3.30;96.30;;;;;;4916850;29;20419;-74
2022/01/09 11:26:57;;;;;;;2.17;1.50;;;3.30;96.30;;;;;;4915338;29;20763;-73
2022/01/09 11:29:43;;;;;;;2.20;1.67;;;3.10;96.30;;;;;;4898092;29;20493;-73
2022/01/09 11:32:37;;;;;;;3.57;1.63;;;3.00;96.30;;;;;;4898292;29;20508;-72
2022/01/09 11:35:14;;;;;;;2.00;1.40;;;2.90;96.30;;;;;;4893551;29;20829;-73
2022/01/09 11:37:50;;;;;;;1.40;0.90;;;2.80;96.30;;;;;;4898112;29;20405;-75
2022/01/09 11:40:24;;;;;;;1.50;0.97;;;2.90;96.30;;;;;;4897714;29;20457;-73
2022/01/09 11:43:04;;;;;;;2.10;1.00;;;2.90;96.30;;;;;;4897754;29;20500;-76
2022/01/09 11:45:41;;;;;;;5.17;3.20;;;2.90;96.30;;;;;;4897494;29;20928;-77
2022/01/09 11:48:07;;;;;;;1.93;1.10;;;2.90;96.30;;;;;;4897799;29;20420;-74
2022/01/09 11:50:42;;;;;;;1.30;1.20;;;2.70;96.30;;;;;;4897516;29;20528;-75
2022/01/09 11:53:07;;;;;;;2.53;1.00;;;2.60;96.30;;;;;;4897520;29;20244;-73
2022/01/09 11:55:41;;;;;;;1.63;1.43;;;2.70;96.30;;;;;;4897738;29;20965;-73
2022/01/09 11:58:09;;;;;;;1.50;1.10;;;2.70;96.30;;;;;;4897735;29;20160;-74
2022/01/09 12:00:38;;;;;;;1.20;0.97;;;2.80;96.30;;;;;;4897572;29;20524;-74
2022/01/09 12:03:25;;;;;;;8.30;0.80;;;2.60;96.30;;;;;;4897720;29;20418;-73
2022/01/09 12:06:11;;;;;;;1.30;0.80;;;2.60;96.30;;;;;;4896449;29;20794;-77
2022/01/09 12:08:56;;;;;;;1.00;0.80;;;2.50;96.30;;;;;;4897685;29;20447;-74
2022/01/09 12:11:21;;;;;;;1.30;0.90;;;2.50;96.30;;;;;;4899269;29;20808;-74
2022/01/09 12:13:48;;;;;;;2.27;2.07;;;2.50;96.30;;;;;;4896862;29;20484;-77
2022/01/09 12:16:50;;;;;;;1.13;0.70;;;2.50;96.30;;;;;;4897412;29;20177;-76
2022/01/09 12:19:52;;;;;;;1.10;0.90;;;2.50;96.30;;;;;;4857662;29;20434;-74
2022/01/09 12:22:44;;;;;;;2.70;0.70;;;2.50;96.30;;;;;;4897265;29;20476;-76
2022/01/09 12:25:21;;;;;;;0.90;0.70;;;2.50;96.30;;;;;;4901218;29;20987;-76
2022/01/09 12:27:54;;;;;;;1.03;0.60;;;2.40;96.30;;;;;;4915897;29;21149;-76
2022/01/09 12:30:44;;;;;;;1.97;1.47;;;2.20;96.30;;;;;;4916049;29;20583;-76
2022/01/09 12:33:21;;;;;;;0.93;0.70;;;2.30;96.30;;;;;;4915658;29;20805;-75
2022/01/09 12:36:17;;;;;;;1.03;0.77;;;2.30;96.30;;;;;;4904709;29;20479;-76
2022/01/09 12:38:51;;;;;;;1.00;0.70;;;2.20;96.30;;;;;;4896944;29;20437;-76
2022/01/09 12:41:22;;;;;;;0.90;0.80;;;2.30;96.30;;;;;;4897115;29;20437;-76
2022/01/09 12:43:49;;;;;;;1.10;0.70;;;2.20;96.30;;;;;;4896584;29;20421;-77
2022/01/09 12:46:18;;;;;;;2.40;0.70;;;2.00;96.30;;;;;;4897182;29;20425;-76
2022/01/09 12:48:54;;;;;;;1.20;0.73;;;2.00;96.30;;;;;;4896585;29;20460;-77
2022/01/09 12:51:21;;;;;;;1.30;0.60;;;2.00;96.30;;;;;;4897233;29;20449;-77
2022/01/09 12:53:48;;;;;;;0.80;0.53;;;1.90;96.30;;;;;;4895381;29;20429;-77
2022/01/09 12:56:16;;;;;;;0.90;0.60;;;1.90;96.30;;;;;;4896610;29;20477;-77
2022/01/09 12:58:47;;;;;;;1.00;0.70;;;1.90;96.30;;;;;;4915671;29;20511;-78
2022/01/09 13:01:12;;;;;;;1.77;1.60;;;2.00;96.30;;;;;;4915646;29;20606;-78
2022/01/09 13:03:40;;;;;;;0.90;0.50;;;2.00;96.30;;;;;;4908316;29;20908;-78
2022/01/09 13:06:08;;;;;;;1.00;0.70;;;1.90;96.30;;;;;;4897039;29;20181;-77
2022/01/09 13:08:39;;;;;;;1.10;0.90;;;1.80;96.30;;;;;;4896890;29;20460;-79
2022/01/09 13:11:07;;;;;;;2.07;1.47;;;1.70;96.30;;;;;;4896736;29;20453;-78
2022/01/09 13:13:34;;;;;;;1.43;0.80;;;1.70;96.30;;;;;;4894413;29;21087;-78
2022/01/09 13:16:18;;;;;;;1.00;0.70;;;1.80;96.30;;;;;;4900851;29;20443;-75
2022/01/09 13:18:50;;;;;;;0.90;0.60;;;1.70;96.30;;;;;;4915721;29;20500;-75
2022/01/09 13:21:27;;;;;;;2.67;1.50;;;1.80;96.30;;;;;;4915129;29;20440;-76
2022/01/09 13:23:59;;;;;;;1.50;0.90;;;1.60;96.30;;;;;;4875867;29;20414;-77
2022/01/09 13:26:30;;;;;;;1.10;0.73;;;1.60;96.30;;;;;;4877096;29;20906;-74
2022/01/09 13:28:56;;;;;;;1.40;0.60;;;1.70;96.30;;;;;;4877615;29;20441;-77
2022/01/09 13:31:22;;;;;;;0.83;0.50;;;1.70;96.30;;;;;;4891974;29;20560;-76
2022/01/09 13:33:52;;;;;;;3.00;0.60;;;1.70;96.30;;;;;;4877052;29;20417;-76
2022/01/09 13:36:38;;;;;;;0.93;0.50;;;1.60;96.30;;;;;;4893068;29;20425;-76
2022/01/09 13:39:10;;;;;;;0.90;0.60;;;1.60;96.30;;;;;;4877826;29;20506;-77
2022/01/09 13:41:40;;;;;;;1.00;0.60;;;1.50;96.30;;;;;;4877792;29;20433;-77
2022/01/09 13:44:06;;;;;;;0.87;0.60;;;1.50;96.30;;;;;;4877271;29;20416;-77
2022/01/09 13:46:31;;;;;;;1.00;0.80;;;1.30;96.30;;;;;;4877819;29;20427;-76
2022/01/09 13:48:57;;;;;;;0.80;0.60;;;1.20;96.30;;;;;;4877443;29;20462;-76
2022/01/09 13:51:42;;;;;;;1.20;0.60;;;1.20;96.30;;;;;;4877730;29;20742;-75
2022/01/09 13:54:11;;;;;;;0.90;0.70;;;1.30;96.30;;;;;;4877026;29;20177;-76
2022/01/09 13:56:36;;;;;;;0.90;0.63;;;1.30;96.30;;;;;;4880165;29;20931;-77
2022/01/09 13:59:02;;;;;;;0.80;0.50;;;1.30;96.30;;;;;;4915298;29;20503;-75
2022/01/09 14:01:53;;;;;;;1.07;0.60;;;1.20;96.30;;;;;;4917360;29;20215;-76
2022/01/09 14:04:20;;;;;;;1.00;0.70;;;1.10;96.30;;;;;;4917897;29;20401;-76
2022/01/09 14:07:07;;;;;;;0.90;0.60;;;1.10;96.30;;;;;;4918772;29;20424;-76
2022/01/09 14:09:35;;;;;;;1.73;0.60;;;1.10;96.30;;;;;;4910619;29;20540;-75
2022/01/09 14:12:03;;;;;;;1.73;0.70;;;1.00;96.30;;;;;;4913958;29;20437;-73
2022/01/09 14:14:35;;;;;;;0.90;0.80;;;0.90;96.30;;;;;;4899061;29;20413;-76
2022/01/09 14:17:00;;;;;;;1.00;0.70;;;0.90;96.30;;;;;;4899462;29;20422;-73
2022/01/09 14:19:45;;;;;;;1.30;0.80;;;0.90;96.30;;;;;;4897945;29;20473;-75
2022/01/09 14:22:11;;;;;;;1.27;0.93;;;0.90;96.30;;;;;;4899604;29;20196;-76
2022/01/09 14:24:56;;;;;;;1.57;0.60;;;0.80;96.30;;;;;;4897992;29;20778;-76
2022/01/09 14:27:26;;;;;;;1.30;1.00;;;0.80;96.30;;;;;;4898243;29;20840;-76
2022/01/09 14:29:51;;;;;;;3.83;0.77;;;0.80;96.30;;;;;;4899276;29;20869;-74
2022/01/09 14:32:18;;;;;;;1.20;0.70;;;0.70;96.30;;;;;;4899380;29;20441;-77
2022/01/09 14:34:44;;;;;;;3.07;0.83;;;0.70;96.30;;;;;;4898284;29;20536;-76
2022/01/09 14:37:11;;;;;;;1.30;0.90;;;0.70;96.30;;;;;;4898033;29;20425;-78
2022/01/09 14:39:37;;;;;;;1.20;0.87;;;0.70;96.30;;;;;;4898046;29;20185;-74
2022/01/09 14:42:06;;;;;;;1.00;0.90;;;0.70;96.30;;;;;;4898835;29;20448;-75
2022/01/09 14:44:38;;;;;;;1.00;0.70;;;0.70;96.30;;;;;;4900889;29;20310;-75
2022/01/09 14:47:04;;;;;;;1.10;0.80;;;0.70;96.30;;;;;;4899059;29;20816;-76
2022/01/09 14:49:29;;;;;;;0.97;0.80;;;0.70;96.30;;;;;;4898842;29;20461;-76
2022/01/09 14:51:56;;;;;;;1.00;0.73;;;0.70;96.30;;;;;;4898854;29;20197;-76
2022/01/09 14:54:21;;;;;;;0.90;0.73;;;0.70;96.30;;;;;;4906487;29;20172;-75
2022/01/09 14:56:47;;;;;;;1.23;0.97;;;0.60;96.30;;;;;;4917642;29;20904;-76
2022/01/09 14:59:13;;;;;;;1.33;0.80;;;0.70;96.30;;;;;;4917308;29;20571;-76
2022/01/09 15:01:39;;;;;;;0.90;0.77;;;0.60;96.30;;;;;;4899516;29;20208;-76
2022/01/09 15:04:05;;;;;;;2.10;1.10;;;0.60;96.30;;;;;;4916249;29;20451;-76
2022/01/09 15:06:31;;;;;;;1.07;0.90;;;0.50;96.30;;;;;;4916532;29;20653;-76
2022/01/09 15:08:57;;;;;;;1.00;0.90;;;0.50;96.30;;;;;;4897461;29;20219;-76
2022/01/09 15:11:23;;;;;;;1.47;1.17;;;0.50;96.30;;;;;;4906654;29;21020;-76
2022/01/09 15:13:48;;;;;;;1.57;0.80;;;0.50;96.30;;;;;;4896983;29;20161;-76
2022/01/09 15:16:14;;;;;;;1.20;0.80;;;0.50;96.30;;;;;;4897704;29;20173;-75
2022/01/09 15:18:40;;;;;;;1.90;1.30;;;0.50;96.30;;;;;;4898092;29;20260;-76
2022/01/09 15:21:06;;;;;;;2.13;0.80;;;0.50;96.30;;;;;;4897176;29;20264;-76
2022/01/09 15:23:31;;;;;;;1.20;1.10;;;0.50;96.30;;;;;;4896816;29;20420;-76
2022/01/09 15:25:57;;;;;;;1.40;1.30;;;0.50;96.30;;;;;;4897202;29;20181;-76
2022/01/09 15:28:23;;;;;;;1.30;1.00;;;0.50;96.30;;;;;;4896184;29;20185;-76
2022/01/09 15:30:50;;;;;;;2.40;0.83;;;0.50;96.30;;;;;;4912227;29;20209;-76
2022/01/09 15:33:17;;;;;;;2.47;1.20;;;0.50;96.30;;;;;;4897222;29;20424;-76
2022/01/09 15:35:47;;;;;;;1.00;0.90;;;0.50;96.30;;;;;;4897731;29;20930;-73
2022/01/09 15:38:12;;;;;;;1.10;1.00;;;0.50;96.30;;;;;;4897482;29;20504;-76
2022/01/09 15:40:38;;;;;;;1.00;0.80;;;0.50;96.30;;;;;;4900437;29;20528;-75
2022/01/09 15:43:04;;;;;;;2.07;1.30;;;0.50;96.30;;;;;;4902172;29;20185;-72
2022/01/09 15:45:30;;;;;;;1.77;1.10;;;0.50;96.30;;;;;;4897225;29;20494;-73
2022/01/09 15:47:56;;;;;;;1.83;1.20;;;0.50;96.30;;;;;;4912186;29;20461;-75
2022/01/09 15:50:21;;;;;;;1.00;0.90;;;0.60;96.30;;;;;;4897369;29;20511;-75
2022/01/09 15:52:47;;;;;;;3.67;1.27;;;0.50;96.30;;;;;;4910587;29;20548;-73
2022/01/09 15:55:13;;;;;;;1.40;0.80;;;0.50;96.30;;;;;;4915407;29;20637;-73
2022/01/09 15:57:42;;;;;;;2.57;1.17;;;0.60;96.30;;;;;;4915966;29;20650;-73
2022/01/09 16:00:09;;;;;;;1.20;1.10;;;0.60;96.30;;;;;;4915507;29;20412;-77
2022/01/09 16:02:37;;;;;;;2.70;1.30;;;0.60;96.30;;;;;;4898502;29;20800;-76
2022/01/09 16:05:04;;;;;;;1.40;1.20;;;0.60;96.30;;;;;;4913877;29;20436;-76
2022/01/09 16:07:29;;;;;;;1.87;1.30;;;0.60;96.30;;;;;;4897539;29;20453;-73
2022/01/09 16:09:55;;;;;;;5.30;1.67;;;0.60;96.30;;;;;;4897327;29;20484;-76
2022/01/09 16:12:20;;;;;;;2.33;1.83;;;0.60;96.30;;;;;;4897524;29;20200;-73
2022/01/09 16:14:46;;;;;;;1.93;1.53;;;0.60;96.30;;;;;;4895821;29;20600;-73
2022/01/09 16:17:11;;;;;;;1.70;1.50;;;0.70;96.30;;;;;;4897715;29;20204;-75
2022/01/09 16:19:37;;;;;;;2.40;1.70;;;0.70;96.30;;;;;;4897465;29;20264;-74
2022/01/09 16:22:03;;;;;;;1.70;1.10;;;0.70;96.30;;;;;;4897381;29;20193;-74
2022/01/09 16:24:29;;;;;;;2.10;1.53;;;0.60;96.30;;;;;;4896236;29;20307;-73
2022/01/09 16:26:54;;;;;;;2.10;1.50;;;0.60;96.30;;;;;;4896866;29;20434;-73
2022/01/09 16:29:20;;;;;;;2.17;1.87;;;0.60;96.30;;;;;;4897171;29;20568;-73
2022/01/09 16:31:47;;;;;;;2.00;1.77;;;0.60;96.30;;;;;;4891518;29;20256;-73
2022/01/09 16:34:13;;;;;;;2.40;1.53;;;0.70;96.30;;;;;;4889187;29;20500;-73
2022/01/09 16:36:39;;;;;;;2.37;1.80;;;0.70;96.30;;;;;;4896169;29;20946;-73
2022/01/09 16:39:11;;;;;;;2.47;1.77;;;0.60;96.30;;;;;;4895686;29;20433;-73
2022/01/09 16:41:37;;;;;;;3.30;2.10;;;0.70;96.30;;;;;;4896300;29;20449;-73
2022/01/09 16:44:02;;;;;;;3.20;1.80;;;0.70;96.30;;;;;;4908882;29;20433;-73
2022/01/09 16:46:28;;;;;;;3.50;1.90;;;0.70;96.30;;;;;;4896702;29;20854;-73
2022/01/09 16:48:53;;;;;;;2.33;1.90;;;0.70;96.30;;;;;;4885618;29;20232;-73
2022/01/09 16:51:19;;;;;;;2.13;1.90;;;0.70;96.30;;;;;;4878099;29;20189;-72
2022/01/09 16:53:45;;;;;;;4.33;1.90;;;0.70;96.30;;;;;;4881207;29;20181;-75
2022/01/09 16:56:11;;;;;;;5.63;2.20;;;0.70;96.30;;;;;;4904150;29;20173;-75
2022/01/09 16:58:41;;;;;;;1.93;1.63;;;0.80;96.30;;;;;;4906565;29;20452;-76